TimeCST,TemperatureF,Dew PointF,Humidity,Sea Level PressureIn,VisibilityMPH,Wind Direction,Wind SpeedMPH,Gust SpeedMPH,PrecipitationIn,Events,Conditions,WindDirDegrees,DateUTC
12:15 AM,8.6,1.4,73,30.05,10.0,Calm,Calm,-,N/A,,Clear,0,2013-03-04 06:15:00
12:35 AM,6.8,1.4,79,30.05,10.0,Calm,Calm,-,N/A,,Clear,0,2013-03-04 06:35:00
12:55 AM,6.8,-0.4,72,30.05,10.0,Calm,Calm,-,N/A,,Clear,0,2013-03-04 06:55:00
1:15 AM,8.6,1.4,73,30.05,10.0,Calm,Calm,-,N/A,,Scattered Clouds,0,2013-03-04 07:15:00
1:55 AM,15.8,3.2,58,30.06,10.0,Calm,Calm,-,N/A,,Overcast,0,2013-03-04 07:55:00
2:15 AM,10.4,3.2,73,30.06,10.0,Calm,Calm,-,N/A,,Overcast,0,2013-03-04 08:15:00
2:35 AM,8.6,1.4,73,30.06,10.0,Calm,Calm,-,N/A,,Mostly Cloudy,0,2013-03-04 08:35:00
2:55 AM,8.6,1.4,73,30.06,10.0,Calm,Calm,-,N/A,,Scattered Clouds,0,2013-03-04 08:55:00
3:15 AM,8.6,1.4,73,30.06,10.0,Calm,Calm,-,N/A,,Clear,0,2013-03-04 09:15:00
3:35 AM,10.4,1.4,67,30.06,10.0,Calm,Calm,-,N/A,,Clear,0,2013-03-04 09:35:00
3:55 AM,12.2,3.2,67,30.06,10.0,East,3.5,-,N/A,,Clear,100,2013-03-04 09:55:00
4:15 AM,14.0,3.2,62,30.06,10.0,ESE,3.5,-,N/A,,Clear,120,2013-03-04 10:15:00
4:35 AM,14.0,3.2,62,30.06,10.0,ESE,4.6,-,N/A,,Clear,110,2013-03-04 10:35:00
4:55 AM,14.0,3.2,62,30.07,10.0,East,4.6,-,N/A,,Clear,100,2013-03-04 10:55:00
5:15 AM,15.8,3.2,58,30.06,10.0,ESE,4.6,-,N/A,,Clear,120,2013-03-04 11:15:00
5:55 AM,14.0,5.0,67,30.06,10.0,East,4.6,-,N/A,,Clear,100,2013-03-04 11:55:00
6:15 AM,14.0,6.8,73,30.06,10.0,East,6.9,-,N/A,,Clear,100,2013-03-04 12:15:00
6:35 AM,14.0,6.8,73,30.07,10.0,ESE,6.9,-,N/A,,Clear,110,2013-03-04 12:35:00
6:55 AM,14.0,6.8,73,30.07,10.0,ESE,6.9,-,N/A,,Clear,110,2013-03-04 12:55:00
7:15 AM,14.0,6.8,73,30.07,10.0,ESE,5.8,-,N/A,,Clear,110,2013-03-04 13:15:00
7:35 AM,15.8,8.6,73,30.07,10.0,ESE,5.8,-,N/A,,Clear,120,2013-03-04 13:35:00
7:55 AM,15.8,8.6,73,30.07,10.0,ESE,5.8,-,N/A,,Clear,110,2013-03-04 13:55:00
8:15 AM,15.8,8.6,73,30.08,10.0,ESE,6.9,-,N/A,,Clear,110,2013-03-04 14:15:00
8:35 AM,17.6,10.4,73,30.08,10.0,ESE,6.9,-,N/A,,Clear,110,2013-03-04 14:35:00
8:55 AM,17.6,10.4,73,30.07,10.0,ESE,6.9,-,N/A,,Clear,120,2013-03-04 14:55:00
9:15 AM,19.4,10.4,68,30.07,10.0,East,6.9,-,N/A,,Clear,100,2013-03-04 15:15:00
9:35 AM,21.2,10.4,63,30.07,10.0,SE,5.8,-,N/A,,Clear,130,2013-03-04 15:35:00
9:55 AM,23.0,10.4,59,30.07,10.0,SE,9.2,-,N/A,,Clear,130,2013-03-04 15:55:00
10:15 AM,24.8,10.4,54,30.06,10.0,East,6.9,-,N/A,,Clear,100,2013-03-04 16:15:00
10:35 AM,26.6,8.6,47,30.06,10.0,ESE,6.9,-,N/A,,Clear,110,2013-03-04 16:35:00
10:55 AM,26.6,8.6,47,30.06,10.0,ESE,9.2,-,N/A,,Clear,120,2013-03-04 16:55:00
11:15 AM,26.6,8.6,47,30.06,10.0,SE,9.2,-,N/A,,Scattered Clouds,130,2013-03-04 17:15:00
11:35 AM,28.4,6.8,40,30.06,10.0,ESE,6.9,-,N/A,,Scattered Clouds,120,2013-03-04 17:35:00
11:55 AM,28.4,6.8,40,30.05,10.0,SE,9.2,-,N/A,,Scattered Clouds,130,2013-03-04 17:55:00
12:15 PM,30.2,5.0,34,30.05,10.0,SE,9.2,-,N/A,,Scattered Clouds,130,2013-03-04 18:15:00
12:55 PM,30.2,3.2,32,30.03,10.0,SE,8.1,-,N/A,,Scattered Clouds,130,2013-03-04 18:55:00
1:15 PM,30.2,5.0,34,30.03,10.0,ESE,5.8,-,N/A,,Clear,110,2013-03-04 19:15:00
1:35 PM,32.0,3.2,30,30.02,10.0,East,6.9,-,N/A,,Clear,100,2013-03-04 19:35:00
1:55 PM,33.8,3.2,28,30.01,10.0,ESE,4.6,-,N/A,,Scattered Clouds,110,2013-03-04 19:55:00
2:15 PM,33.8,1.4,25,30.01,10.0,SE,4.6,-,N/A,,Scattered Clouds,130,2013-03-04 20:15:00
2:35 PM,33.8,1.4,25,30.01,10.0,ESE,5.8,-,N/A,,Mostly Cloudy,120,2013-03-04 20:35:00
2:55 PM,33.8,3.2,28,30.01,10.0,ESE,5.8,-,N/A,,Scattered Clouds,110,2013-03-04 20:55:00
3:15 PM,33.8,3.2,28,30.01,10.0,SE,9.2,-,N/A,,Scattered Clouds,140,2013-03-04 21:15:00
3:35 PM,33.8,3.2,28,30.01,10.0,SE,6.9,-,N/A,,Mostly Cloudy,140,2013-03-04 21:35:00
3:55 PM,33.8,3.2,28,30.01,10.0,SE,9.2,-,N/A,,Overcast,140,2013-03-04 21:55:00
4:15 PM,33.8,5.0,30,30.02,10.0,SE,8.1,-,N/A,,Overcast,140,2013-03-04 22:15:00
4:35 PM,33.8,3.2,28,30.01,10.0,SSE,6.9,-,N/A,,Overcast,150,2013-03-04 22:35:00
4:55 PM,33.8,6.8,32,30.01,10.0,SE,6.9,-,N/A,,Overcast,140,2013-03-04 22:55:00
5:15 PM,32.0,5.0,32,30.02,10.0,SE,4.6,-,N/A,,Overcast,130,2013-03-04 23:15:00
5:35 PM,33.8,6.8,32,30.01,10.0,ESE,3.5,-,N/A,,Overcast,110,2013-03-04 23:35:00
5:55 PM,33.8,6.8,32,30.02,10.0,ESE,5.8,-,N/A,,Overcast,110,2013-03-04 23:55:00
6:15 PM,32.0,8.6,38,30.03,10.0,ESE,4.6,-,N/A,,Overcast,110,2013-03-05 00:15:00
6:35 PM,32.0,8.6,38,30.04,10.0,SE,5.8,-,N/A,,Overcast,130,2013-03-05 00:35:00
6:55 PM,32.0,10.4,41,30.04,10.0,ESE,5.8,-,N/A,,Overcast,110,2013-03-05 00:55:00
7:15 PM,32.0,10.4,41,30.04,10.0,ESE,5.8,-,N/A,,Overcast,110,2013-03-05 01:15:00
7:35 PM,30.2,12.2,47,30.04,10.0,ESE,4.6,-,N/A,,Overcast,110,2013-03-05 01:35:00
7:55 PM,30.2,12.2,47,30.04,10.0,East,5.8,-,N/A,,Overcast,100,2013-03-05 01:55:00
8:35 PM,30.2,12.2,47,30.03,10.0,East,6.9,-,N/A,,Mostly Cloudy,100,2013-03-05 02:35:00
8:55 PM,30.2,12.2,47,30.03,10.0,East,5.8,-,N/A,,Mostly Cloudy,100,2013-03-05 02:55:00
9:15 PM,30.2,14.0,51,30.03,10.0,ESE,4.6,-,N/A,,Unknown,110,2013-03-05 03:15:00
9:35 PM,30.2,12.2,47,30.04,10.0,ESE,3.5,-,N/A,,Overcast,120,2013-03-05 03:35:00
9:55 PM,30.2,12.2,47,30.04,10.0,ESE,4.6,-,N/A,,Overcast,120,2013-03-05 03:55:00
10:15 PM,30.2,12.2,47,30.04,10.0,ESE,6.9,-,N/A,,Overcast,110,2013-03-05 04:15:00
10:55 PM,30.2,14.0,51,30.06,10.0,SE,6.9,-,N/A,,Overcast,130,2013-03-05 04:55:00
11:15 PM,30.2,14.0,51,30.06,10.0,SE,5.8,-,N/A,,Overcast,140,2013-03-05 05:15:00
11:35 PM,28.4,15.8,59,30.06,10.0,SE,9.2,-,N/A,,Overcast,140,2013-03-05 05:35:00
11:55 PM,28.4,14.0,55,30.07,10.0,SSE,5.8,-,N/A,,Overcast,150,2013-03-05 05:55:00